Language selection

Weather shortcuts

West Coast Vancouver Island North: Past 24 Hour Conditions

 

West Dixon Entrance - 46205

07:00 PM PDT 19 May 2024Buoy position: 54.17N 134.28W
Disclaimer

This table is a summary of hourly weather conditions for the past 24 hours.
Please note that these observations might not always be representative of weather conditions over their associated marine area.

Date / Time
(PDT)
Wind(knots) Wave height(m) Wave period(s) Pressure(kPa) Air tempC) Water tempC)
19 May 2024
19:00 S 16 gusts 20 2.00 6.4 102.3 9 9
18:00 S 18 gusts 22 1.90 6.4 102.4 9 9
17:00 S 19 gusts 23 1.80 4.9 102.4 8 9
16:00 S 19 gusts 23 1.70 4.6 102.5 8 9
15:00 S 19 gusts 24 1.60 19.7 102.5 8 9
14:00 S 19 gusts 23 1.40 8.5 102.6 9 9
13:00 S 18 gusts 22 1.40 19.7 102.6 8 9
12:00 SSW 16 gusts 20 1.30 7.8 102.6 8 9
11:00 SSW 13 gusts 16 1.20 7.8 102.6 8 9
10:00 SSW 10 gusts 12 1.20 8.3 102.6 8 9
9:00 SW 10 gusts 13 1.20 8.0 102.6 8 9
8:00 WSW 11 gusts 13 1.30 8.0 102.6 8 9
7:00 W 10 gusts 12 1.30 8.0 102.6 8 9
6:00 WNW 6 gusts 9 1.40 8.3 102.6 8 9
5:00 W 6 gusts 11 1.50 8.0 102.6 8 9
4:00 W 10 gusts 12 1.50 8.0 102.6 8 9
3:00 WNW 8 gusts 10 1.60 8.3 102.6 7 9
2:00 W 13 gusts 15 1.70 8.8 102.6 8 9
1:00 WNW 13 gusts 16 N/A 8.3 102.5 8 9
0:00 WNW 9 gusts 12 1.60 9.1 102.5 8 9
18 May 2024
23:00 WNW 11 gusts 15 1.60 9.1 102.5 8 9
22:00 NW 13 gusts 17 1.60 8.3 102.5 8 9
21:00 WNW 12 gusts 16 1.50 8.0 102.4 8 9
20:00 WNW 12 gusts 16 1.60 7.8 102.4 8 9
19:00 WNW 11 gusts 13 1.60 9.1 102.4 8 9

Zoom-in to make a selection

Map of Pacific - North Coast marine weather areas Middle Nomad - 46004 South Nomad - 46036 Dixon Entrance Central - 46145 South Moresby - 46147 Nanakwa Shoal - 46181 North Hecate Strait - 46183 North Nomad - 46184 South Hecate Strait - 46185 West Sea Otter - 46204 West Dixon Entrance - 46205 East Dellwood - 46207 West Moresby - 46208 Sartine Island Cape St.James Kindakun Rocks Langara Island Masset Municipal Airport Rose Spit Sandspit Airport Bella Bella Airport Bella Coola Airport Bonilla Island Cathedral Point Cumshewa Island Grey Islet Holland Rock Lucy Islands Lightstation Prince Rupert Airport
Legend:
buoy Buoy
land station Land Station

Pacific - North Coast Area

Another Region

Date modified: